Date,TemperatureHighF,TemperatureAvgF,TemperatureLowF,DewpointHighF,DewpointAvgF,DewpointLowF,HumidityHigh,HumidityAvg,HumidityLow,PressureMaxIn,PressureMinIn,WindSpeedMaxMPH,WindSpeedAvgMPH,GustSpeedMaxMPH,PrecipitationSumIn
2013-6-1,84.0,74.7,69.0,70.1,65.7,62.3,88,74,61,30.00,29.81,32,8,32,0.15
2013-6-2,78.0,70.4,65.2,64.6,62.3,57.8,88,76,58,29.94,29.86,16,4,16,0.00
2013-6-3,74.7,65.9,59.7,58.5,55.9,52.7,90,71,50,30.05,29.91,12,4,12,0.00
2013-6-4,81.8,67.7,55.7,57.9,54.4,50.5,83,64,43,30.12,30.03,12,3,12,0.00
2013-6-5,84.3,71.6,60.5,66.5,58.5,48.9,84,64,47,30.05,29.86,12,2,12,0.00
2013-6-6,77.2,70.2,65.9,68.3,64.9,62.6,90,83,70,29.88,29.75,13,4,13,0.04
2013-6-7,78.7,67.8,62.0,63.3,60.2,58.0,90,78,53,29.87,29.76,12,4,12,0.00
2013-6-8,83.5,71.3,61.6,64.8,60.1,56.3,85,69,50,30.04,29.86,12,1,12,0.00
2013-6-9,81.3,69.2,61.9,69.0,62.5,57.0,90,80,58,30.07,29.93,12,3,12,0.22
2013-6-10,75.7,68.9,64.4,66.6,63.6,61.4,90,84,68,29.93,29.83,17,5,17,0.82
2013-6-11,84.4,73.0,62.6,67.1,63.9,59.6,90,75,54,30.01,29.91,12,4,12,0.01
2013-6-12,91.5,81.8,72.5,75.0,70.1,65.2,84,69,51,29.96,29.79,21,7,21,0.00
2013-6-13,81.8,75.7,66.1,72.0,66.3,56.4,90,73,57,29.92,29.66,26,9,26,0.73
2013-6-14,82.0,69.8,56.1,61.9,56.8,51.3,85,65,46,30.05,29.90,12,3,12,0.00
2013-6-15,86.3,74.2,60.6,61.9,59.0,55.7,84,61,40,30.12,29.98,12,2,12,0.00
2013-6-16,82.0,73.3,66.1,69.0,64.2,59.8,90,74,64,30.05,29.96,17,3,17,0.76
2013-6-17,87.5,73.5,66.0,72.0,66.3,56.8,90,79,48,29.99,29.87,16,2,16,0.13
2013-6-18,86.3,71.6,63.6,67.9,63.8,56.1,90,78,52,29.98,29.84,28,2,28,0.46
2013-6-19,82.7,71.9,62.0,64.5,60.7,58.2,90,70,46,30.10,29.95,13,4,13,0.01
2013-6-20,90.1,76.1,62.5,64.9,60.5,56.6,83,60,38,30.19,30.10,13,2,13,0.00
2013-6-21,88.9,76.8,65.9,68.6,64.1,59.7,90,66,46,30.22,30.11,37,2,37,1.03
2013-6-22,91.0,77.5,66.3,70.7,66.6,63.3,90,71,46,30.20,30.06,9,2,9,0.00
2013-6-23,89.4,78.4,66.7,69.3,65.6,62.3,87,66,44,30.16,30.05,12,3,12,0.00
2013-6-25,89.7,80.0,68.0,74.4,70.4,65.0,90,74,55,30.09,29.93,24,4,13,0.01
2013-6-26,86.1,75.3,67.2,73.0,68.4,63.3,90,80,60,29.97,29.77,20,5,20,2.33
2013-6-27,87.1,74.9,67.0,75.5,68.8,64.0,90,82,61,29.85,29.75,13,4,13,0.27
2013-6-28,86.0,77.7,70.5,70.0,64.9,58.4,87,67,42,29.76,29.60,20,6,20,0.00
2013-6-29,81.2,72.0,64.0,65.2,62.2,59.6,90,72,55,29.70,29.59,18,4,18,1.34
2013-6-30,82.4,71.1,62.9,65.2,62.3,59.9,90,75,51,29.80,29.66,12,2,12,0.02